Time;durP1;ratioP1;P1;durP2;ratioP2;P2;SDS_P1;SDS_P2;PMS_P1;PMS_P2;Temp;Humidity;BMP_temperature;BMP_pressure;BME280_temperature;BME280_humidity;BME280_pressure;Samples;Min_cycle;Max_cycle;Signal;HPM_P1;HPM_P2
2022/05/03 00:00:04;;;;;;;0.80;0.80;;;9.90;99.90;;;;;;5182110;28;20055;-75
2022/05/03 00:02:49;;;;;;;1.42;1.42;;;9.90;99.90;;;;;;5186252;28;20045;-78
2022/05/03 00:05:33;;;;;;;0.80;0.80;;;9.90;99.90;;;;;;5146494;28;20049;-78
2022/05/03 00:08:23;;;;;;;1.53;1.53;;;9.90;99.90;;;;;;5190912;28;20060;-75
2022/05/03 00:11:23;;;;;;;0.70;0.70;;;9.90;99.90;;;;;;5190206;28;20295;-78
2022/05/03 00:14:22;;;;;;;0.80;0.80;;;9.90;99.90;;;;;;5194896;28;20041;-76
2022/05/03 00:16:58;;;;;;;0.65;0.65;;;9.90;99.90;;;;;;5164578;28;20042;-80
2022/05/03 00:19:30;;;;;;;0.70;0.70;;;9.90;99.90;;;;;;5177554;28;20037;-78
2022/05/03 00:22:01;;;;;;;0.65;0.65;;;10.00;99.90;;;;;;5157648;28;20053;-77
2022/05/03 00:24:34;;;;;;;0.82;0.82;;;10.10;99.90;;;;;;5146194;28;20034;-76
2022/05/03 00:27:07;;;;;;;1.52;1.52;;;10.00;99.90;;;;;;5177123;28;20270;-80
2022/05/03 00:29:40;;;;;;;1.52;1.42;;;10.00;99.90;;;;;;5162007;28;20034;-76
2022/05/03 00:32:12;;;;;;;0.85;0.85;;;10.00;99.90;;;;;;5178579;28;20064;-76
2022/05/03 00:34:47;;;;;;;0.77;0.77;;;9.90;99.90;;;;;;5178801;28;20034;-78
2022/05/03 00:37:20;;;;;;;1.08;1.08;;;9.80;99.90;;;;;;5176443;28;20247;-78
2022/05/03 00:39:52;;;;;;;0.80;0.80;;;9.70;99.90;;;;;;5180599;28;20242;-77
2022/05/03 00:42:23;;;;;;;0.80;0.80;;;9.70;99.90;;;;;;5162131;28;20258;-77
2022/05/03 00:45:19;;;;;;;0.82;0.82;;;9.60;99.90;;;;;;5161682;28;20343;-79
2022/05/03 00:47:56;;;;;;;0.98;0.98;;;9.70;99.90;;;;;;5178490;28;20224;-80
2022/05/03 00:50:44;;;;;;;1.13;1.13;;;9.60;99.90;;;;;;5178401;28;20036;-79
2022/05/03 00:53:42;;;;;;;0.70;0.70;;;9.50;99.90;;;;;;5179457;28;20036;-79
2022/05/03 00:56:35;;;;;;;0.80;0.80;;;9.40;99.90;;;;;;5158675;28;20042;-80
2022/05/03 00:59:34;;;;;;;0.90;0.90;;;9.40;99.90;;;;;;5159947;28;20038;-77
2022/05/03 01:02:09;;;;;;;0.70;0.70;;;9.30;99.90;;;;;;5161907;28;20400;-76
2022/05/03 01:04:56;;;;;;;1.15;1.15;;;9.20;99.90;;;;;;5168667;28;20060;-77
2022/05/03 01:07:30;;;;;;;0.80;0.80;;;9.10;99.90;;;;;;5178864;28;20238;-76
2022/05/03 01:10:06;;;;;;;0.80;0.80;;;9.10;99.90;;;;;;5179249;28;20239;-77
2022/05/03 01:13:14;;;;;;;1.50;1.48;;;9.00;99.90;;;;;;5159507;28;20038;-76
2022/05/03 01:15:52;;;;;;;0.65;0.65;;;8.90;99.90;;;;;;5175060;28;20209;-75
2022/05/03 01:18:36;;;;;;;1.10;1.10;;;8.80;99.90;;;;;;5161173;28;20034;-79
2022/05/03 01:21:39;;;;;;;0.73;0.73;;;8.80;99.90;;;;;;5160873;28;20316;-79
2022/05/03 01:24:48;;;;;;;0.63;0.63;;;8.80;99.90;;;;;;5158915;28;20354;-79
2022/05/03 01:27:37;;;;;;;0.73;0.73;;;8.80;99.90;;;;;;5179764;28;20021;-76
2022/05/03 01:30:11;;;;;;;0.80;0.80;;;8.70;99.90;;;;;;5161189;28;20332;-78
2022/05/03 01:32:47;;;;;;;0.90;0.90;;;8.80;99.90;;;;;;5165431;28;20052;-78
2022/05/03 01:35:21;;;;;;;0.80;0.80;;;8.80;99.90;;;;;;5160927;28;20041;-77
2022/05/03 01:38:10;;;;;;;0.90;0.90;;;8.70;99.90;;;;;;5179423;28;20044;-78
2022/05/03 01:41:03;;;;;;;0.88;0.88;;;8.70;99.90;;;;;;5178070;28;20048;-77
2022/05/03 01:44:00;;;;;;;0.70;0.70;;;8.70;99.90;;;;;;5161465;28;20343;-79
2022/05/03 01:46:35;;;;;;;0.70;0.70;;;8.70;99.90;;;;;;5157160;28;20241;-76
2022/05/03 01:52:33;;;;;;;0.95;0.95;;;8.60;99.90;;;;;;5177784;28;20327;-74
2022/05/03 01:55:27;;;;;;;0.77;0.77;;;8.60;99.90;;;;;;5178333;28;20041;-75
2022/05/03 01:58:25;;;;;;;0.80;0.80;;;8.60;99.90;;;;;;5186314;28;20354;-77
2022/05/03 02:01:18;;;;;;;0.70;0.70;;;8.60;99.90;;;;;;5177211;28;20255;-76
2022/05/03 02:04:26;;;;;;;0.70;0.70;;;8.70;99.90;;;;;;5149883;28;20032;-79
2022/05/03 02:07:13;;;;;;;0.75;0.75;;;8.80;99.90;;;;;;5144934;28;20056;-78
2022/05/03 02:10:04;;;;;;;0.80;0.80;;;8.80;99.90;;;;;;5161310;28;20045;-80
2022/05/03 02:12:43;;;;;;;1.40;1.40;;;8.80;99.90;;;;;;5178321;28;20030;-78
2022/05/03 02:15:30;;;;;;;1.17;1.17;;;8.80;99.90;;;;;;5178270;28;20068;-78
2022/05/03 02:18:05;;;;;;;0.88;0.88;;;8.90;99.90;;;;;;5161157;28;20044;-77
2022/05/03 02:21:15;;;;;;;1.15;1.15;;;8.90;99.90;;;;;;5175047;28;20030;-76
2022/05/03 02:24:05;;;;;;;0.70;0.70;;;9.10;99.90;;;;;;5177229;28;20022;-78
2022/05/03 02:26:53;;;;;;;0.70;0.70;;;9.30;99.90;;;;;;5161805;28;20022;-77
2022/05/03 02:29:44;;;;;;;0.85;0.85;;;9.30;99.90;;;;;;5178561;28;20029;-77
2022/05/03 02:32:47;;;;;;;0.63;0.63;;;9.30;99.90;;;;;;5174651;28;20017;-79
2022/05/03 02:35:21;;;;;;;0.60;0.60;;;9.50;99.90;;;;;;5158572;28;20152;-77
2022/05/03 02:38:02;;;;;;;0.90;0.90;;;9.40;99.90;;;;;;5156760;28;20022;-77
2022/05/03 02:40:38;;;;;;;0.80;0.80;;;9.40;99.90;;;;;;5156247;28;20425;-77
2022/05/03 02:43:12;;;;;;;0.98;0.98;;;9.40;99.90;;;;;;5164757;28;20598;-78
2022/05/03 02:45:53;;;;;;;1.67;1.58;;;9.40;99.90;;;;;;5165500;28;20265;-77
2022/05/03 02:49:13;;;;;;;1.00;1.00;;;9.40;99.90;;;;;;5161004;28;20365;-77
2022/05/03 02:52:09;;;;;;;2.20;1.70;;;9.40;99.90;;;;;;5094415;29;20241;-77
2022/05/03 02:54:50;;;;;;;0.70;0.70;;;9.20;99.90;;;;;;5095745;29;20046;-76
2022/05/03 02:57:53;;;;;;;0.65;0.65;;;9.10;99.90;;;;;;5098138;29;20042;-77
2022/05/03 03:03:44;;;;;;;0.77;0.77;;;8.80;99.90;;;;;;5079920;29;20035;-79
2022/05/03 03:06:30;;;;;;;0.85;0.85;;;8.70;99.90;;;;;;5070654;29;20062;-77
2022/05/03 03:09:03;;;;;;;0.60;0.60;;;8.50;99.90;;;;;;5082846;29;20053;-79
2022/05/03 03:11:58;;;;;;;1.13;1.13;;;8.50;99.90;;;;;;5098881;29;20047;-78
2022/05/03 03:14:35;;;;;;;;;;;8.40;99.90;;;;;;5100305;29;20032;-76
2022/05/03 03:17:10;;;;;;;0.70;0.70;;;8.30;99.90;;;;;;5099104;29;19911;-78
2022/05/03 03:20:03;;;;;;;0.75;0.75;;;8.20;99.90;;;;;;5098743;29;20047;-77
2022/05/03 03:22:44;;;;;;;0.50;0.50;;;8.20;99.90;;;;;;5140265;28;20033;-79
2022/05/03 03:25:26;;;;;;;0.80;0.80;;;8.20;99.90;;;;;;5183476;28;20029;-77
2022/05/03 03:28:01;;;;;;;0.85;0.85;;;8.40;99.90;;;;;;5195796;28;20049;-76
2022/05/03 03:30:36;;;;;;;0.90;0.90;;;8.40;99.90;;;;;;5196060;28;20022;-78
2022/05/03 03:33:08;;;;;;;1.40;1.40;;;8.50;99.90;;;;;;5150949;28;20037;-77
2022/05/03 03:35:50;;;;;;;1.70;0.98;;;8.50;99.90;;;;;;5181178;28;20038;-78
2022/05/03 03:38:30;;;;;;;0.70;0.70;;;8.60;99.90;;;;;;5181737;28;20061;-77
2022/05/03 03:41:07;;;;;;;0.60;0.60;;;8.70;99.90;;;;;;5163172;28;20034;-76
2022/05/03 03:43:48;;;;;;;0.57;0.57;;;8.70;99.90;;;;;;5164054;28;20048;-78
2022/05/03 03:46:21;;;;;;;0.95;0.95;;;8.70;99.90;;;;;;5181382;28;20026;-77
2022/05/03 03:48:54;;;;;;;1.08;1.08;;;8.70;99.90;;;;;;5182159;28;20068;-78
2022/05/03 03:51:31;;;;;;;0.70;0.70;;;8.70;99.90;;;;;;5180731;28;20279;-77
2022/05/03 03:54:06;;;;;;;0.70;0.70;;;8.70;99.90;;;;;;5182352;28;20045;-77
2022/05/03 03:56:40;;;;;;;1.02;1.02;;;8.70;99.90;;;;;;5181956;28;20020;-79
2022/05/03 03:59:16;;;;;;;0.82;0.82;;;8.80;99.90;;;;;;5181516;28;20052;-78
2022/05/03 04:01:51;;;;;;;0.90;0.90;;;8.80;99.90;;;;;;5181968;28;20026;-80
2022/05/03 04:04:33;;;;;;;1.58;1.50;;;8.80;99.90;;;;;;5152837;28;20050;-77
2022/05/03 04:07:09;;;;;;;1.75;1.65;;;8.90;99.90;;;;;;5192894;28;20291;-78
2022/05/03 04:09:45;;;;;;;1.23;1.23;;;9.00;99.90;;;;;;5180261;28;20339;-76
2022/05/03 04:12:21;;;;;;;1.40;1.40;;;9.10;99.90;;;;;;5163319;28;20033;-76
2022/05/03 04:14:52;;;;;;;1.08;1.08;;;9.20;99.90;;;;;;5180682;28;20048;-76
2022/05/03 04:17:26;;;;;;;0.80;0.80;;;9.30;99.90;;;;;;5181782;28;20354;-76
2022/05/03 04:19:58;;;;;;;1.13;1.13;;;9.40;99.90;;;;;;5147951;28;20334;-77
2022/05/03 04:22:35;;;;;;;0.80;0.80;;;9.50;99.90;;;;;;5182353;28;20025;-79
2022/05/03 04:25:07;;;;;;;1.42;1.42;;;9.70;99.90;;;;;;5183360;28;20040;-75
2022/05/03 04:27:39;;;;;;;0.77;0.77;;;9.80;99.90;;;;;;5177137;28;20018;-77
2022/05/03 04:30:10;;;;;;;1.23;1.23;;;9.90;99.90;;;;;;5146173;28;20038;-76
2022/05/03 04:32:44;;;;;;;0.80;0.80;;;10.00;99.90;;;;;;5162484;28;20319;-74
2022/05/03 04:35:18;;;;;;;0.85;0.85;;;10.00;99.90;;;;;;5183882;28;20030;-77
2022/05/03 04:37:51;;;;;;;0.80;0.80;;;10.20;99.90;;;;;;5164920;28;20036;-76
2022/05/03 04:40:25;;;;;;;0.88;0.88;;;10.40;99.90;;;;;;5163152;28;20493;-77
2022/05/03 04:42:58;;;;;;;0.63;0.63;;;10.50;99.90;;;;;;5180374;28;20385;-78
2022/05/03 04:45:29;;;;;;;0.95;0.95;;;10.70;99.90;;;;;;5182376;28;20268;-77
2022/05/03 04:48:00;;;;;;;0.70;0.70;;;10.80;99.90;;;;;;5181967;28;20038;-76
2022/05/03 04:50:31;;;;;;;0.70;0.70;;;11.00;99.90;;;;;;5162776;28;20315;-75
2022/05/03 04:53:05;;;;;;;0.85;0.85;;;11.20;99.90;;;;;;5181694;28;20036;-78
2022/05/03 04:55:40;;;;;;;1.63;1.55;;;11.20;99.90;;;;;;5162383;28;20038;-77
2022/05/03 04:58:12;;;;;;;0.60;0.60;;;11.40;99.90;;;;;;5169543;28;20049;-76
2022/05/03 05:00:44;;;;;;;0.98;0.98;;;11.50;99.90;;;;;;5201606;28;20323;-76
2022/05/03 05:03:15;;;;;;;0.98;0.98;;;11.70;99.90;;;;;;5180571;28;20276;-76
2022/05/03 05:05:46;;;;;;;1.30;1.30;;;11.70;99.90;;;;;;5149603;28;20062;-75
2022/05/03 05:08:17;;;;;;;0.80;0.80;;;11.70;99.90;;;;;;5164747;28;20044;-79
2022/05/03 05:10:51;;;;;;;0.82;0.82;;;11.90;99.90;;;;;;5159120;28;20173;-78
2022/05/03 05:13:25;;;;;;;0.80;0.80;;;12.40;99.90;;;;;;5165037;28;20045;-77
2022/05/03 05:15:56;;;;;;;0.77;0.77;;;12.60;99.90;;;;;;5181159;28;20034;-78
2022/05/03 05:18:33;;;;;;;0.60;0.60;;;12.90;99.90;;;;;;5127075;28;20034;-78
2022/05/03 05:21:06;;;;;;;0.75;0.75;;;13.10;99.90;;;;;;5162697;28;20034;-79
2022/05/03 05:23:40;;;;;;;0.80;0.80;;;13.50;99.90;;;;;;5162648;28;20164;-78
2022/05/03 05:26:14;;;;;;;1.45;1.45;;;13.80;99.90;;;;;;5186661;28;20017;-78
2022/05/03 05:28:51;;;;;;;0.63;0.63;;;14.10;99.90;;;;;;5190022;28;20026;-79
2022/05/03 05:31:22;;;;;;;0.60;0.60;;;14.30;99.90;;;;;;5194037;28;20044;-80
2022/05/03 05:33:56;;;;;;;1.00;1.00;;;14.50;99.90;;;;;;5193317;28;20026;-79
2022/05/03 05:36:30;;;;;;;0.90;0.90;;;14.70;99.90;;;;;;5177397;28;20044;-78
2022/05/03 05:39:06;;;;;;;0.75;0.75;;;14.80;99.90;;;;;;5176820;28;20053;-79
2022/05/03 05:41:40;;;;;;;0.60;0.60;;;15.10;99.90;;;;;;5192620;28;20014;-80
2022/05/03 05:44:13;;;;;;;1.15;1.15;;;15.50;99.90;;;;;;5175791;28;20068;-78
2022/05/03 05:46:47;;;;;;;0.60;0.60;;;15.80;99.90;;;;;;5169362;28;20030;-78
2022/05/03 05:49:19;;;;;;;2.25;2.05;;;16.40;99.90;;;;;;5152588;28;20048;-78
2022/05/03 05:51:50;;;;;;;1.08;1.08;;;16.90;99.90;;;;;;5164814;28;20030;-78
2022/05/03 05:54:21;;;;;;;1.50;1.40;;;17.30;99.90;;;;;;5177015;28;20044;-79
2022/05/03 05:56:54;;;;;;;1.02;1.00;;;17.10;99.90;;;;;;5181715;28;20292;-78
2022/05/03 05:59:26;;;;;;;0.88;0.88;;;17.60;99.90;;;;;;5151492;28;20054;-78
2022/05/03 06:02:01;;;;;;;1.10;1.10;;;17.40;99.90;;;;;;5181410;28;20044;-79
2022/05/03 06:04:33;;;;;;;1.00;0.77;;;17.40;99.90;;;;;;5155586;28;20042;-79
2022/05/03 06:07:07;;;;;;;0.50;0.50;;;17.60;99.90;;;;;;5181523;28;20018;-79
2022/05/03 06:09:43;;;;;;;1.50;1.40;;;17.70;99.90;;;;;;5182150;28;20038;-79
2022/05/03 06:12:17;;;;;;;0.70;0.70;;;18.30;99.90;;;;;;5147388;28;20060;-77
2022/05/03 06:14:48;;;;;;;1.00;1.00;;;18.80;99.90;;;;;;5182474;28;20028;-79
2022/05/03 06:17:19;;;;;;;0.95;0.95;;;19.30;99.90;;;;;;5142710;28;20168;-80
2022/05/03 06:19:53;;;;;;;0.50;0.50;;;19.30;99.90;;;;;;5178675;28;20042;-78
2022/05/03 06:22:27;;;;;;;0.75;0.75;;;19.10;99.90;;;;;;5180012;28;20029;-80
2022/05/03 06:24:59;;;;;;;1.05;1.05;;;19.20;99.90;;;;;;5162079;28;20029;-77
2022/05/03 06:27:31;;;;;;;0.50;0.50;;;19.30;99.90;;;;;;5168564;28;20018;-79
2022/05/03 06:30:04;;;;;;;0.70;0.70;;;19.70;99.90;;;;;;5172158;28;20073;-77
2022/05/03 06:32:37;;;;;;;0.98;0.98;;;19.80;99.90;;;;;;5166239;28;20034;-79
2022/05/03 06:35:11;;;;;;;0.80;0.80;;;20.30;99.90;;;;;;5167013;28;20308;-78
2022/05/03 06:37:42;;;;;;;0.77;0.77;;;20.70;99.90;;;;;;5167006;28;20046;-79
2022/05/03 06:40:14;;;;;;;0.60;0.60;;;20.80;99.90;;;;;;5167885;28;20046;-75
2022/05/03 06:42:45;;;;;;;1.75;1.40;;;20.60;99.90;;;;;;5187791;28;20041;-79
2022/05/03 06:45:17;;;;;;;0.52;0.52;;;21.10;99.90;;;;;;5170059;28;20038;-77
2022/05/03 06:47:48;;;;;;;1.20;1.20;;;21.70;99.90;;;;;;5187462;28;20028;-76
2022/05/03 06:50:19;;;;;;;0.63;0.63;;;22.10;99.90;;;;;;5167632;28;20421;-79
2022/05/03 06:52:53;;;;;;;0.75;0.75;;;22.00;99.90;;;;;;5163680;28;20220;-81
2022/05/03 06:55:32;;;;;;;0.67;0.67;;;22.20;99.90;;;;;;5177231;28;20036;-78
2022/05/03 06:58:03;;;;;;;0.95;0.95;;;22.40;99.90;;;;;;5183006;28;20034;-77
2022/05/03 07:00:37;;;;;;;0.45;0.45;;;22.60;99.90;;;;;;5166100;28;20045;-79
2022/05/03 07:03:12;;;;;;;0.75;0.75;;;22.80;99.90;;;;;;5153329;28;20053;-79
2022/05/03 07:05:44;;;;;;;0.98;0.98;;;22.70;99.90;;;;;;5159741;28;20046;-78
2022/05/03 07:08:15;;;;;;;1.00;1.00;;;22.90;99.90;;;;;;5143027;28;20034;-78
2022/05/03 07:10:46;;;;;;;0.77;0.77;;;22.70;99.90;;;;;;5137593;28;20071;-78
2022/05/03 07:13:23;;;;;;;0.45;0.45;;;22.60;99.90;;;;;;5163593;28;20026;-78
2022/05/03 07:15:56;;;;;;;0.77;0.77;;;23.00;99.90;;;;;;5176206;28;20022;-77
2022/05/03 07:24:11;;;;;;;0.43;0.43;;;23.40;99.90;;;;;;5183231;28;20034;-79
2022/05/03 07:26:44;;;;;;;0.90;0.90;;;22.90;99.90;;;;;;5179093;28;20122;-78
2022/05/03 07:29:16;;;;;;;0.85;0.85;;;22.50;99.90;;;;;;5183422;28;20026;-78
2022/05/03 07:31:51;;;;;;;0.50;0.50;;;22.80;99.90;;;;;;5181706;28;20343;-77
2022/05/03 07:34:22;;;;;;;0.93;0.93;;;23.20;99.90;;;;;;5182816;28;20040;-78
2022/05/03 07:36:53;;;;;;;0.60;0.60;;;23.10;99.90;;;;;;5163448;28;20022;-77
2022/05/03 07:39:24;;;;;;;1.08;1.08;;;23.00;99.90;;;;;;5164530;28;20070;-77
2022/05/03 07:41:58;;;;;;;1.05;0.82;;;22.70;99.90;;;;;;5166372;28;20457;-78
2022/05/03 07:44:32;;;;;;;0.85;0.85;;;23.10;99.90;;;;;;5146833;28;20280;-76
2022/05/03 07:47:06;;;;;;;0.93;0.93;;;23.40;99.90;;;;;;5181618;28;20040;-76
2022/05/03 07:49:37;;;;;;;1.00;0.95;;;23.20;99.90;;;;;;5180460;28;20228;-79
2022/05/03 07:52:08;;;;;;;1.40;1.30;;;23.20;99.90;;;;;;5163523;28;20266;-78
2022/05/03 07:54:45;;;;;;;0.40;0.40;;;23.50;99.90;;;;;;5134534;28;20030;-76
2022/05/03 07:57:19;;;;;;;0.50;0.50;;;23.40;99.90;;;;;;5166916;28;20589;-80
2022/05/03 07:59:56;;;;;;;0.60;0.60;;;23.00;99.90;;;;;;5180915;28;20029;-79
2022/05/03 08:02:32;;;;;;;6.15;1.10;;;23.50;99.90;;;;;;5180665;28;20032;-79
2022/05/03 08:05:04;;;;;;;0.60;0.60;;;24.10;99.90;;;;;;5154044;28;20052;-78
2022/05/03 08:07:39;;;;;;;0.50;0.50;;;24.10;99.90;;;;;;5180710;28;20040;-77
2022/05/03 08:10:11;;;;;;;0.52;0.52;;;24.40;99.90;;;;;;5178313;28;20033;-78
2022/05/03 08:12:51;;;;;;;2.28;0.60;;;24.70;99.90;;;;;;5179059;28;20419;-80
2022/05/03 08:15:25;;;;;;;0.45;0.45;;;24.80;99.90;;;;;;5161110;28;20041;-79
2022/05/03 08:17:56;;;;;;;0.90;0.90;;;24.80;99.90;;;;;;5171850;28;20165;-77
2022/05/03 08:20:27;;;;;;;0.82;0.82;;;24.80;99.90;;;;;;5161028;28;20030;-77
2022/05/03 08:22:59;;;;;;;1.30;1.23;;;25.10;99.90;;;;;;5162919;28;20221;-78
2022/05/03 08:25:37;;;;;;;0.68;0.68;;;25.20;99.90;;;;;;5181076;28;20098;-78
2022/05/03 08:28:11;;;;;;;0.40;0.40;;;25.50;99.90;;;;;;5175824;28;20033;-76
2022/05/03 08:30:43;;;;;;;0.40;0.40;;;25.40;99.90;;;;;;5158089;28;20335;-76
2022/05/03 08:33:15;;;;;;;0.40;0.40;;;25.30;99.90;;;;;;5147178;28;20034;-79
2022/05/03 08:35:46;;;;;;;1.30;1.30;;;25.20;99.90;;;;;;5163281;28;20033;-77
2022/05/03 08:44:19;;;;;;;0.90;0.90;;;25.70;99.90;;;;;;5072717;29;20039;-79
2022/05/03 08:46:53;;;;;;;0.38;0.38;;;26.10;99.90;;;;;;5053567;29;20473;-78
2022/05/03 08:49:42;;;;;;;0.35;0.35;;;26.10;99.90;;;;;;5077736;29;20044;-77
2022/05/03 08:52:17;;;;;;;0.45;0.45;;;26.20;99.90;;;;;;5067088;29;20048;-80
2022/05/03 08:54:49;;;;;;;0.98;0.98;;;26.30;99.90;;;;;;5061247;29;20340;-78
2022/05/03 08:57:21;;;;;;;0.70;0.70;;;25.90;99.90;;;;;;5078146;29;20036;-78
2022/05/03 08:59:54;;;;;;;0.85;0.85;;;25.60;99.90;;;;;;5080715;29;20249;-79
2022/05/03 09:02:26;;;;;;;1.02;0.50;;;25.70;99.90;;;;;;5079480;29;20050;-78
2022/05/03 09:04:57;;;;;;;0.40;0.40;;;26.00;99.90;;;;;;5078554;29;20523;-78
2022/05/03 09:07:36;;;;;;;0.40;0.40;;;25.90;99.90;;;;;;5065778;29;20167;-77
2022/05/03 09:10:19;;;;;;;0.80;0.80;;;26.60;99.90;;;;;;5068484;29;20044;-80
2022/05/03 09:12:51;;;;;;;0.40;0.40;;;27.10;99.90;;;;;;5078289;29;20028;-80
2022/05/03 09:15:33;;;;;;;0.30;0.30;;;26.60;99.90;;;;;;5109963;28;20053;-76
2022/05/03 09:18:05;;;;;;;1.35;1.25;;;26.10;99.90;;;;;;5166498;28;20324;-79
2022/05/03 09:26:23;;;;;;;0.55;0.55;;;26.60;99.90;;;;;;5180939;28;20327;-77
2022/05/03 09:29:10;;;;;;;0.47;0.47;;;26.90;99.90;;;;;;5162406;28;20021;-78
2022/05/03 09:31:48;;;;;;;0.30;0.30;;;27.20;99.90;;;;;;5179905;28;20292;-77
2022/05/03 09:34:27;;;;;;;0.40;0.40;;;27.30;99.90;;;;;;5179417;28;20353;-76
2022/05/03 09:37:05;;;;;;;0.30;0.30;;;27.20;99.90;;;;;;5156793;28;20033;-79
2022/05/03 09:39:46;;;;;;;0.80;0.80;;;27.90;99.90;;;;;;5178051;28;20056;-81
2022/05/03 09:42:24;;;;;;;0.40;0.40;;;27.20;99.90;;;;;;5187035;28;20231;-79
2022/05/03 09:45:00;;;;;;;0.60;0.60;;;27.80;99.90;;;;;;5169908;28;20033;-79
2022/05/03 09:47:48;;;;;;;1.85;0.60;;;27.40;99.90;;;;;;5186373;28;20051;-76
2022/05/03 09:50:48;;;;;;;0.50;0.50;;;27.20;99.90;;;;;;5186577;28;20022;-80
2022/05/03 09:53:21;;;;;;;0.60;0.60;;;27.60;99.90;;;;;;5183998;28;20033;-79
2022/05/03 09:55:53;;;;;;;0.70;0.70;;;28.50;99.90;;;;;;5187908;28;20037;-79
2022/05/03 09:58:31;;;;;;;0.40;0.40;;;29.20;99.90;;;;;;5164347;28;20034;-77
2022/05/03 10:01:05;;;;;;;0.30;0.30;;;28.90;99.90;;;;;;5181097;28;20026;-80
2022/05/03 10:03:36;;;;;;;;;;;29.10;99.90;;;;;;5163077;28;20037;-78
2022/05/03 10:06:11;;;;;;;0.60;0.60;;;28.80;99.90;;;;;;5149535;28;19947;-78
2022/05/03 10:08:44;;;;;;;0.40;0.40;;;29.10;99.90;;;;;;5185115;28;20314;-78
2022/05/03 10:11:21;;;;;;;0.60;0.60;;;29.20;99.90;;;;;;5182793;28;20044;-78
2022/05/03 10:13:56;;;;;;;0.47;0.47;;;29.70;99.90;;;;;;5166509;28;20034;-78
2022/05/03 10:22:37;;;;;;;0.40;0.40;;;29.80;99.90;;;;;;5106272;29;20041;-76
2022/05/03 10:25:11;;;;;;;0.80;0.80;;;29.70;99.90;;;;;;5101018;29;20055;-77
2022/05/03 10:28:00;;;;;;;0.30;0.30;;;29.80;99.90;;;;;;5107531;29;20369;-80
2022/05/03 10:30:38;;;;;;;0.30;0.30;;;29.10;99.90;;;;;;5105860;29;20353;-79
2022/05/03 10:33:28;;;;;;;0.30;0.30;;;29.40;99.90;;;;;;5099249;29;20046;-77
2022/05/03 10:36:01;;;;;;;0.55;0.50;;;30.20;99.90;;;;;;5101628;29;20042;-80
2022/05/03 10:38:35;;;;;;;0.30;0.30;;;30.60;99.90;;;;;;5101050;29;20330;-77
2022/05/03 10:41:09;;;;;;;0.52;0.52;;;29.90;99.90;;;;;;5106369;29;20237;-79
2022/05/03 10:43:43;;;;;;;0.40;0.40;;;31.00;99.90;;;;;;5116944;28;20048;-78
2022/05/03 10:46:20;;;;;;;0.70;0.70;;;32.60;99.00;;;;;;5102180;29;20163;-79
2022/05/03 10:49:05;;;;;;;0.43;0.43;;;32.90;97.30;;;;;;5120677;29;20039;-80
2022/05/03 10:51:37;;;;;;;0.50;0.50;;;33.80;95.80;;;;;;5183431;28;20059;-81
2022/05/03 10:54:08;;;;;;;0.40;0.40;;;32.80;96.00;;;;;;5190499;28;20347;-78
2022/05/03 10:57:07;;;;;;;0.40;0.40;;;31.50;95.30;;;;;;5168891;28;20028;-79
2022/05/03 10:59:48;;;;;;;0.40;0.40;;;31.60;95.30;;;;;;5185024;28;20022;-82
2022/05/03 11:02:22;;;;;;;0.40;0.40;;;33.30;95.10;;;;;;5165303;28;20038;-78
2022/05/03 11:05:16;;;;;;;0.40;0.40;;;34.30;93.20;;;;;;5162555;28;20046;-79
2022/05/03 11:08:21;;;;;;;0.40;0.40;;;33.50;94.20;;;;;;5190203;28;20032;-77
2022/05/03 11:10:53;;;;;;;0.50;0.50;;;33.20;93.20;;;;;;5132925;28;20038;-79
2022/05/03 11:13:37;;;;;;;0.80;0.80;;;33.90;92.90;;;;;;5183646;28;20057;-79
2022/05/03 11:16:20;;;;;;;0.88;0.88;;;35.70;93.00;;;;;;5180628;28;20025;-80
2022/05/03 11:18:54;;;;;;;0.50;0.50;;;36.40;91.20;;;;;;5179668;28;20036;-80
2022/05/03 11:21:25;;;;;;;0.65;0.65;;;36.00;91.10;;;;;;5165116;28;20217;-79
2022/05/03 11:23:56;;;;;;;0.40;0.40;;;35.70;90.30;;;;;;5145166;28;20044;-80
2022/05/03 11:26:29;;;;;;;2.25;1.02;;;36.00;91.00;;;;;;5178997;28;20338;-81
2022/05/03 11:29:02;;;;;;;0.57;0.57;;;36.00;89.10;;;;;;5181758;28;20029;-79
2022/05/03 11:31:36;;;;;;;0.60;0.60;;;36.40;88.60;;;;;;5149951;28;20236;-78
2022/05/03 11:34:10;;;;;;;0.60;0.60;;;36.10;89.50;;;;;;5180014;28;20098;-77
2022/05/03 11:36:42;;;;;;;0.50;0.50;;;33.00;90.40;;;;;;5182946;28;20361;-79
2022/05/03 11:39:16;;;;;;;0.55;0.55;;;32.40;91.30;;;;;;5182874;28;20048;-79
2022/05/03 11:41:48;;;;;;;;;;;33.90;91.20;;;;;;5143851;28;20038;-77
2022/05/03 11:44:20;;;;;;;0.68;0.68;;;33.90;90.90;;;;;;5180876;28;19920;-76
2022/05/03 11:46:56;;;;;;;0.43;0.43;;;31.30;91.50;;;;;;5181827;28;20059;-78
2022/05/03 11:49:29;;;;;;;1.08;0.75;;;28.70;93.10;;;;;;5182813;28;20345;-78
2022/05/03 11:57:44;;;;;;;0.40;0.40;;;26.70;96.00;;;;;;5164378;28;20030;-77
2022/05/03 12:00:15;;;;;;;0.60;0.60;;;26.30;95.90;;;;;;5165154;28;20035;-76
2022/05/03 12:02:47;;;;;;;0.50;0.50;;;23.90;97.40;;;;;;5182680;28;20255;-81
2022/05/03 12:05:20;;;;;;;0.38;0.38;;;23.20;99.00;;;;;;5178798;28;20055;-76
2022/05/03 12:07:54;;;;;;;0.40;0.40;;;22.60;98.90;;;;;;5186879;28;20324;-75
2022/05/03 12:10:34;;;;;;;0.30;0.30;;;22.40;99.00;;;;;;5159399;28;20339;-77
2022/05/03 12:13:25;;;;;;;0.45;0.45;;;21.90;99.70;;;;;;5178532;28;20034;-80
2022/05/03 12:15:57;;;;;;;0.40;0.40;;;21.70;99.90;;;;;;5191454;28;20014;-78
2022/05/03 12:18:33;;;;;;;1.08;0.98;;;21.30;99.90;;;;;;5195338;28;20033;-78
2022/05/03 12:21:30;;;;;;;1.40;1.30;;;21.00;99.90;;;;;;5190047;28;20280;-76
2022/05/03 12:24:04;;;;;;;0.40;0.40;;;20.90;99.90;;;;;;5179284;28;20036;-75
2022/05/03 12:26:44;;;;;;;0.60;0.60;;;20.50;99.90;;;;;;5181308;28;20030;-76
2022/05/03 12:29:15;;;;;;;0.52;0.52;;;20.30;99.90;;;;;;5162474;28;20363;-75
2022/05/03 12:31:47;;;;;;;0.30;0.30;;;20.40;99.90;;;;;;5181087;28;20215;-76
2022/05/03 12:34:25;;;;;;;0.95;0.95;;;20.30;99.90;;;;;;5174973;28;20225;-77
2022/05/03 12:37:03;;;;;;;0.60;0.60;;;20.10;99.90;;;;;;5171973;28;20041;-76
2022/05/03 12:39:36;;;;;;;1.25;1.15;;;19.80;99.90;;;;;;5160970;28;20572;-78
2022/05/03 12:42:15;;;;;;;10.50;2.35;;;19.40;99.90;;;;;;5173902;28;20034;-76
2022/05/03 12:44:59;;;;;;;0.88;0.88;;;18.70;99.90;;;;;;5147900;28;20055;-75
2022/05/03 12:47:33;;;;;;;1.17;1.15;;;17.80;99.90;;;;;;5170650;28;20349;-76
2022/05/03 12:50:05;;;;;;;0.40;0.40;;;17.20;99.90;;;;;;5165012;28;20358;-77
2022/05/03 12:52:38;;;;;;;0.52;0.52;;;16.80;99.90;;;;;;5179578;28;20033;-76
2022/05/03 12:55:09;;;;;;;0.50;0.50;;;16.70;99.90;;;;;;5168144;28;20056;-77
2022/05/03 13:00:53;;;;;;;0.45;0.45;;;16.40;99.90;;;;;;5125663;28;20038;-76
2022/05/03 13:03:25;;;;;;;0.40;0.40;;;16.60;99.90;;;;;;5135387;28;20062;-74
2022/05/03 13:05:58;;;;;;;0.50;0.50;;;16.80;99.90;;;;;;5120175;28;20221;-76
2022/05/03 13:08:30;;;;;;;0.50;0.50;;;17.00;99.90;;;;;;5130092;28;20042;-79
2022/05/03 13:11:04;;;;;;;0.40;0.40;;;17.20;99.90;;;;;;5135754;28;20039;-79
2022/05/03 13:13:35;;;;;;;0.52;0.52;;;17.50;99.90;;;;;;5144711;28;20038;-75
2022/05/03 13:16:07;;;;;;;0.55;0.55;;;17.90;99.90;;;;;;5113534;28;20210;-77
2022/05/03 13:18:39;;;;;;;0.40;0.40;;;18.30;99.90;;;;;;5137483;28;20038;-77
2022/05/03 13:21:13;;;;;;;0.60;0.60;;;18.30;99.90;;;;;;5134602;28;20045;-76
2022/05/03 13:23:44;;;;;;;0.43;0.43;;;18.70;99.90;;;;;;5134413;28;20034;-78
2022/05/03 13:26:16;;;;;;;1.17;1.17;;;19.80;99.90;;;;;;5132382;28;20299;-76
2022/05/03 13:28:47;;;;;;;0.43;0.43;;;20.80;99.90;;;;;;5131417;28;20201;-76
2022/05/03 13:31:23;;;;;;;0.35;0.35;;;23.10;99.90;;;;;;5110839;28;20058;-79
2022/05/03 13:33:59;;;;;;;0.57;0.57;;;26.00;99.90;;;;;;5116517;28;20382;-78
2022/05/03 13:42:11;;;;;;;0.52;0.52;;;29.10;99.90;;;;;;5163635;28;20377;-78
2022/05/03 13:44:42;;;;;;;0.40;0.40;;;26.90;99.90;;;;;;5147809;28;20034;-78
2022/05/03 13:47:18;;;;;;;0.63;0.63;;;24.90;99.90;;;;;;5175345;28;20685;-76
2022/05/03 13:49:50;;;;;;;0.60;0.60;;;24.20;99.90;;;;;;5178301;28;20030;-77
2022/05/03 13:52:21;;;;;;;0.60;0.60;;;25.80;99.90;;;;;;5161380;28;20064;-76
2022/05/03 13:54:54;;;;;;;0.50;0.50;;;27.20;99.90;;;;;;5179437;28;20034;-77
2022/05/03 13:57:28;;;;;;;0.32;0.32;;;28.40;99.90;;;;;;5176542;28;20037;-78
2022/05/03 14:00:00;;;;;;;0.38;0.38;;;31.20;99.90;;;;;;5178060;28;20037;-78
2022/05/03 14:02:31;;;;;;;0.50;0.50;;;31.40;99.90;;;;;;5177950;28;20041;-79
2022/05/03 14:05:03;;;;;;;0.50;0.50;;;32.10;99.90;;;;;;5168472;28;20339;-76
2022/05/03 14:07:37;;;;;;;0.30;0.30;;;33.30;98.40;;;;;;5176478;28;20204;-77
2022/05/03 14:10:09;;;;;;;0.40;0.40;;;32.60;95.70;;;;;;5178708;28;20050;-80
2022/05/03 14:12:40;;;;;;;0.50;0.50;;;31.70;93.50;;;;;;5176115;28;20040;-78
2022/05/03 14:15:16;;;;;;;0.52;0.52;;;29.80;96.70;;;;;;5170940;28;20026;-79
2022/05/03 14:17:47;;;;;;;0.60;0.60;;;32.00;96.20;;;;;;5169610;28;20308;-79
2022/05/03 14:20:19;;;;;;;0.40;0.40;;;33.60;95.10;;;;;;5171543;28;20407;-81
2022/05/03 14:22:50;;;;;;;0.40;0.40;;;35.40;93.40;;;;;;5157086;28;20068;-78
2022/05/03 14:25:24;;;;;;;0.40;0.40;;;35.50;92.10;;;;;;5175799;28;20310;-79